createdAt,value
2019-03-28T00:00:27.736Z,17.5
2019-03-28T00:01:30.204Z,17.4
2019-03-28T00:02:32.700Z,17.4
2019-03-28T00:03:34.634Z,17.4
2019-03-28T00:04:37.111Z,17.5
2019-03-28T00:05:39.014Z,17.4
2019-03-28T00:06:41.230Z,17.5
2019-03-28T00:07:42.870Z,17.4
2019-03-28T00:08:45.080Z,17.4
2019-03-28T00:09:47.292Z,17.4
2019-03-28T00:10:49.780Z,17.5
2019-03-28T00:11:52.264Z,17.5
2019-03-28T00:12:54.476Z,17.5
2019-03-28T00:13:56.950Z,17.5
2019-03-28T00:14:58.896Z,17.5
2019-03-28T00:16:01.390Z,17.5
2019-03-28T00:17:03.879Z,17.5
2019-03-28T00:18:06.092Z,17.5
2019-03-28T00:19:08.579Z,17.6
2019-03-28T00:20:11.051Z,17.6
2019-03-28T00:21:13.232Z,17.7
2019-03-28T00:22:15.712Z,17.5
2019-03-28T00:23:18.821Z,17.5
2019-03-28T00:24:20.445Z,17.7
2019-03-28T00:25:23.184Z,17.6
2019-03-28T00:27:30.384Z,17.6
2019-03-28T00:28:32.348Z,17.6
2019-03-28T00:29:34.815Z,17.6
2019-03-28T00:30:37.294Z,17.6
2019-03-28T00:31:39.782Z,17.6
2019-03-28T00:32:42.248Z,17.6
2019-03-28T00:33:45.008Z,17.6
2019-03-28T00:34:47.221Z,17.7
2019-03-28T00:35:49.695Z,17.6
2019-03-28T00:36:51.086Z,17.6
2019-03-28T00:37:53.299Z,17.5
2019-03-28T00:38:55.504Z,17.6
2019-03-28T00:39:57.673Z,17.6
2019-03-28T00:40:59.858Z,17.7
2019-03-28T00:42:02.055Z,17.7
2019-03-28T00:43:04.529Z,17.7
2019-03-28T00:44:07.019Z,17.6
2019-03-28T00:45:08.921Z,17.7
2019-03-28T00:46:11.397Z,17.7
2019-03-28T00:47:13.875Z,17.7
2019-03-28T00:48:15.770Z,17.7
2019-03-28T00:49:18.378Z,17.7
2019-03-28T00:50:20.644Z,17.7
2019-03-28T00:51:22.848Z,17.7
2019-03-28T00:52:26.159Z,17.7
2019-03-28T00:53:28.635Z,17.7
2019-03-28T00:54:31.112Z,17.7
2019-03-28T00:55:33.591Z,17.8
2019-03-28T00:57:40.615Z,17.7
2019-03-28T00:58:43.089Z,17.8
2019-03-28T00:59:45.566Z,17.8
2019-03-28T01:00:47.767Z,17.8
2019-03-28T01:01:50.264Z,17.8
2019-03-28T01:02:52.754Z,17.8
2019-03-28T01:03:54.970Z,17.8
2019-03-28T01:04:57.458Z,17.8
2019-03-28T01:05:59.684Z,17.8
2019-03-28T01:07:02.157Z,17.8
2019-03-28T01:08:04.074Z,17.9
2019-03-28T01:09:06.274Z,17.8
2019-03-28T01:10:08.488Z,17.8
2019-03-28T01:11:10.981Z,17.9
2019-03-28T01:12:14.183Z,17.9
2019-03-28T01:13:16.671Z,17.8
2019-03-28T01:14:19.660Z,17.8
2019-03-28T01:15:21.860Z,17.8
2019-03-28T01:16:24.870Z,17.8
2019-03-28T01:17:27.342Z,17.9
2019-03-28T01:18:29.546Z,17.8
2019-03-28T01:19:31.724Z,17.8
2019-03-28T01:20:33.936Z,17.8
2019-03-28T01:21:36.158Z,17.8
2019-03-28T01:22:38.637Z,17.8
2019-03-28T01:23:40.825Z,17.9
2019-03-28T01:24:42.465Z,17.9
2019-03-28T01:25:44.933Z,17.8
2019-03-28T01:27:52.403Z,17.9
2019-03-28T01:28:54.602Z,17.8
2019-03-28T01:29:57.526Z,17.9
2019-03-28T01:30:59.978Z,18
2019-03-28T01:32:02.868Z,17.9
2019-03-28T01:33:04.811Z,17.9
2019-03-28T01:34:07.023Z,17.8
2019-03-28T01:35:09.890Z,17.9
2019-03-28T01:36:13.098Z,17.9
2019-03-28T01:37:15.636Z,17.9
2019-03-28T01:38:17.835Z,18
2019-03-28T01:39:21.399Z,17.9
2019-03-28T01:40:23.701Z,17.9
2019-03-28T01:41:26.184Z,17.9
2019-03-28T01:42:28.404Z,17.9
2019-03-28T01:43:30.610Z,18
2019-03-28T01:44:33.111Z,17.9
2019-03-28T01:45:35.306Z,18
2019-03-28T01:46:37.231Z,18
2019-03-28T01:47:39.446Z,18
2019-03-28T01:48:41.922Z,18
2019-03-28T01:49:44.390Z,18
2019-03-28T01:50:46.861Z,18
2019-03-28T01:51:49.062Z,18.1
2019-03-28T01:52:51.256Z,18.1
2019-03-28T01:53:53.745Z,18
2019-03-28T01:54:56.219Z,18
2019-03-28T01:55:58.421Z,18
2019-03-28T01:58:05.924Z,17.9
2019-03-28T01:59:08.103Z,18
2019-03-28T02:00:10.599Z,18.1
2019-03-28T02:01:13.891Z,18.1
2019-03-28T02:02:16.095Z,18.1
2019-03-28T02:03:18.287Z,18
2019-03-28T02:04:20.495Z,18
2019-03-28T02:05:22.693Z,18.1
2019-03-28T02:06:24.911Z,18
2019-03-28T02:07:26.890Z,18
2019-03-28T02:08:29.368Z,18
2019-03-28T02:09:32.297Z,18.1
2019-03-28T02:10:34.558Z,18
2019-03-28T02:11:37.042Z,18.1
2019-03-28T02:12:39.526Z,18.1
2019-03-28T02:13:42.004Z,18
2019-03-28T02:14:44.194Z,18.1
2019-03-28T02:15:46.664Z,18.1
2019-03-28T02:16:48.920Z,18.1
2019-03-28T02:17:50.832Z,18
2019-03-28T02:18:54.128Z,18
2019-03-28T02:19:56.364Z,18.1
2019-03-28T02:20:58.842Z,18.1
2019-03-28T02:22:02.218Z,18.1
2019-03-28T02:23:04.432Z,18
2019-03-28T02:24:06.364Z,18
2019-03-28T02:25:08.852Z,18.1
2019-03-28T02:26:11.331Z,18.2
2019-03-28T02:28:18.489Z,18
2019-03-28T02:29:20.678Z,18.1
2019-03-28T02:30:23.145Z,18
2019-03-28T02:31:26.586Z,18.1
2019-03-28T02:32:28.784Z,18.1
2019-03-28T02:33:30.958Z,18.1
2019-03-28T02:34:33.431Z,18.1
2019-03-28T02:35:35.736Z,18.1
2019-03-28T02:36:37.914Z,18.1
2019-03-28T02:37:39.850Z,18.1
2019-03-28T02:38:42.070Z,18.1
2019-03-28T02:39:44.553Z,18
2019-03-28T02:40:47.029Z,18.1
2019-03-28T02:41:49.505Z,18.1
2019-03-28T02:42:51.975Z,18.1
2019-03-28T02:43:55.468Z,18.2
2019-03-28T02:44:57.371Z,18.1
2019-03-28T02:45:59.860Z,18.1
2019-03-28T02:47:02.341Z,18.1
2019-03-28T02:48:04.820Z,18.1
2019-03-28T02:49:07.326Z,18.2
2019-03-28T02:50:09.850Z,18
2019-03-28T02:51:12.840Z,18.1
2019-03-28T02:52:15.032Z,18.1
2019-03-28T02:53:17.513Z,18.1
2019-03-28T02:54:19.742Z,18.1
2019-03-28T02:55:22.308Z,18.2
2019-03-28T02:56:25.700Z,18.1
2019-03-28T02:58:32.911Z,18.1
2019-03-28T02:59:35.114Z,18
2019-03-28T03:00:37.598Z,18
2019-03-28T03:01:39.231Z,18.1
2019-03-28T03:02:42.325Z,18.2
2019-03-28T03:03:44.800Z,18.1
2019-03-28T03:04:47.283Z,18
2019-03-28T03:05:49.773Z,18.2
2019-03-28T03:06:51.769Z,18.1
2019-03-28T03:07:53.984Z,18.1
2019-03-28T03:08:56.458Z,18.1
2019-03-28T03:09:58.697Z,18.2
2019-03-28T03:11:01.532Z,18.2
2019-03-28T03:12:03.750Z,18.1
2019-03-28T03:13:05.967Z,18.1
2019-03-28T03:14:08.177Z,18.2
2019-03-28T03:15:10.640Z,18.2
2019-03-28T03:16:13.110Z,18.1
2019-03-28T03:17:16.447Z,18.1
2019-03-28T03:19:23.924Z,18.1
2019-03-28T03:20:27.259Z,18.1
2019-03-28T03:21:29.463Z,18.2
2019-03-28T03:22:31.633Z,18.1
2019-03-28T03:23:33.831Z,18.2
2019-03-28T03:24:36.314Z,18.2
2019-03-28T03:25:38.279Z,18.1
2019-03-28T03:26:40.693Z,18.2
2019-03-28T03:28:48.156Z,18.1
2019-03-28T03:29:50.069Z,18.1
2019-03-28T03:30:52.568Z,18.2
2019-03-28T03:31:55.072Z,18.2
2019-03-28T03:32:57.321Z,18.1
2019-03-28T03:33:58.959Z,18.1
2019-03-28T03:35:02.665Z,18.1
2019-03-28T03:36:05.149Z,18.2
2019-03-28T03:37:07.348Z,18.2
2019-03-28T03:38:09.266Z,18.2
2019-03-28T03:39:11.754Z,18.1
2019-03-28T03:40:14.848Z,18.2
2019-03-28T03:41:17.334Z,18.1
2019-03-28T03:42:19.817Z,18.2
2019-03-28T03:43:23.610Z,18.1
2019-03-28T03:44:26.075Z,18.1
2019-03-28T03:45:28.285Z,18.2
2019-03-28T03:46:30.745Z,18.2
2019-03-28T03:47:33.223Z,18.1
2019-03-28T03:48:35.763Z,18.1
2019-03-28T03:49:38.264Z,18
2019-03-28T03:50:40.494Z,18.1
2019-03-28T03:52:47.970Z,18.1
2019-03-28T03:53:50.446Z,18.1
2019-03-28T03:54:53.014Z,18.1
2019-03-28T03:55:55.223Z,18
2019-03-28T03:56:57.713Z,18.1
2019-03-28T03:59:05.203Z,18
2019-03-28T04:00:07.407Z,18.2
2019-03-28T04:01:09.882Z,18
2019-03-28T04:02:12.067Z,18.1
2019-03-28T04:03:14.290Z,18.1
2019-03-28T04:04:16.222Z,18.2
2019-03-28T04:05:18.732Z,18.1
2019-03-28T04:06:21.219Z,18.1
2019-03-28T04:07:23.705Z,18.1
2019-03-28T04:08:27.636Z,18
2019-03-28T04:09:29.831Z,18
2019-03-28T04:10:31.775Z,18
2019-03-28T04:11:33.966Z,17.9
2019-03-28T04:12:36.720Z,17.9
2019-03-28T04:13:38.942Z,18
2019-03-28T04:14:41.190Z,17.9
2019-03-28T04:15:43.666Z,17.9
2019-03-28T04:16:46.144Z,17.9
2019-03-28T04:17:48.632Z,17.9
2019-03-28T04:18:51.277Z,17.9
2019-03-28T04:19:53.481Z,17.9
2019-03-28T04:20:55.396Z,17.8
2019-03-28T04:21:57.893Z,17.9
2019-03-28T04:23:00.106Z,17.8
2019-03-28T04:24:02.326Z,17.9
2019-03-28T04:25:04.832Z,17.8
2019-03-28T04:26:07.316Z,17.9
2019-03-28T04:27:09.293Z,17.8
2019-03-28T04:28:13.033Z,17.8
2019-03-28T04:29:18.997Z,17.8
2019-03-28T04:30:21.186Z,17.8
2019-03-28T04:31:24.472Z,17.8
2019-03-28T04:32:26.966Z,17.8
2019-03-28T04:33:29.173Z,17.8
2019-03-28T04:34:31.697Z,17.8
2019-03-28T04:35:33.968Z,17.8
2019-03-28T04:36:35.896Z,17.8
2019-03-28T04:37:38.402Z,17.8
2019-03-28T04:38:40.606Z,17.8
2019-03-28T04:39:43.160Z,17.8
2019-03-28T04:40:45.376Z,17.8
2019-03-28T04:41:47.844Z,17.7
2019-03-28T04:42:51.047Z,17.8
2019-03-28T04:44:58.525Z,17.8
2019-03-28T04:46:00.726Z,17.7
2019-03-28T04:47:03.202Z,17.7
2019-03-28T04:48:05.680Z,17.7
2019-03-28T04:49:07.871Z,17.8
2019-03-28T04:50:10.296Z,17.8
2019-03-28T04:51:12.872Z,17.7
2019-03-28T04:52:15.336Z,17.7
2019-03-28T04:53:17.805Z,17.7
2019-03-28T04:54:20.293Z,17.8
2019-03-28T04:55:22.781Z,17.7
2019-03-28T04:56:24.987Z,17.7
2019-03-28T04:57:27.492Z,17.7
2019-03-28T04:58:43.349Z,17.8
2019-03-28T04:59:35.821Z,17.7
2019-03-28T05:00:37.739Z,17.7
2019-03-28T05:01:40.218Z,17.7
2019-03-28T05:02:45.726Z,17.6
2019-03-28T05:03:48.181Z,17.6
2019-03-28T05:04:51.110Z,17.7
2019-03-28T05:05:53.336Z,17.7
2019-03-28T05:06:55.859Z,17.6
2019-03-28T05:07:58.046Z,17.7
2019-03-28T05:09:00.350Z,17.7
2019-03-28T05:10:02.874Z,17.6
2019-03-28T05:11:05.066Z,17.6
2019-03-28T05:12:08.346Z,17.7
2019-03-28T05:13:10.539Z,17.6
2019-03-28T05:14:12.742Z,17.6
2019-03-28T05:15:14.691Z,17.7
2019-03-28T05:16:17.170Z,17.7
2019-03-28T05:17:19.671Z,17.6
2019-03-28T05:18:22.146Z,17.7
2019-03-28T05:19:24.616Z,17.7
2019-03-28T05:20:27.094Z,17.6
2019-03-28T05:21:29.293Z,17.5
2019-03-28T05:22:32.465Z,17.6
2019-03-28T05:23:34.668Z,17.6
2019-03-28T05:24:37.136Z,17.6
2019-03-28T05:25:39.664Z,17.6
2019-03-28T05:26:41.994Z,17.6
2019-03-28T05:27:44.455Z,17.7
2019-03-28T05:29:52.726Z,17.7
2019-03-28T05:30:54.664Z,17.6
2019-03-28T05:31:57.135Z,17.6
2019-03-28T05:32:59.606Z,17.6
2019-03-28T05:34:01.521Z,17.5
2019-03-28T05:35:03.999Z,17.6
2019-03-28T05:36:06.525Z,17.5
2019-03-28T05:37:08.739Z,17.6
2019-03-28T05:38:11.691Z,17.6
2019-03-28T05:39:14.181Z,17.6
2019-03-28T05:40:16.676Z,17.6
2019-03-28T05:41:18.906Z,17.6
2019-03-28T05:42:21.093Z,17.6
2019-03-28T05:43:23.557Z,17.4
2019-03-28T05:44:25.738Z,17.6
2019-03-28T05:45:28.269Z,17.6
2019-03-28T05:46:30.737Z,17.6
2019-03-28T05:47:33.215Z,17.5
2019-03-28T05:48:35.424Z,17.6
2019-03-28T05:49:37.638Z,17.6
2019-03-28T05:50:39.836Z,17.6
2019-03-28T05:51:42.051Z,17.5
2019-03-28T05:52:44.250Z,17.5
2019-03-28T05:53:47.072Z,17.5
2019-03-28T05:54:49.256Z,17.5
2019-03-28T05:55:51.474Z,17.6
2019-03-28T05:56:53.676Z,17.5
2019-03-28T05:57:56.160Z,17.6
2019-03-28T06:00:03.625Z,17.6
2019-03-28T06:01:06.795Z,17.6
2019-03-28T06:02:09.273Z,17.6
2019-03-28T06:03:11.763Z,17.6
2019-03-28T06:04:13.980Z,17.5
2019-03-28T06:05:16.442Z,17.6
2019-03-28T06:06:19.111Z,17.6
2019-03-28T06:07:21.298Z,17.5
2019-03-28T06:08:23.772Z,17.5
2019-03-28T06:09:25.973Z,17.6
2019-03-28T06:10:28.465Z,17.5
2019-03-28T06:11:30.945Z,17.5
2019-03-28T06:12:33.150Z,17.5
2019-03-28T06:13:35.364Z,17.6
2019-03-28T06:14:37.600Z,17.5
2019-03-28T06:15:41.642Z,17.6
2019-03-28T06:16:44.138Z,17.4
2019-03-28T06:17:46.346Z,17.5
2019-03-28T06:18:48.831Z,17.5
2019-03-28T06:19:51.316Z,17.5
2019-03-28T06:20:53.218Z,17.6
2019-03-28T06:21:56.433Z,17.5
2019-03-28T06:22:58.918Z,17.5
2019-03-28T06:24:01.383Z,17.6
2019-03-28T06:26:08.286Z,17.5
2019-03-28T06:27:10.770Z,17.6
2019-03-28T06:28:13.235Z,17.5
2019-03-28T06:30:20.436Z,17.5
2019-03-28T06:31:22.604Z,17.5
2019-03-28T06:32:25.093Z,17.5
2019-03-28T06:33:27.030Z,17.5
2019-03-28T06:34:29.495Z,17.5
2019-03-28T06:35:31.971Z,17.4
2019-03-28T06:36:33.901Z,17.5
2019-03-28T06:37:36.093Z,17.4
2019-03-28T06:38:38.030Z,17.5
2019-03-28T06:39:40.512Z,17.4
2019-03-28T06:40:42.485Z,17.5
2019-03-28T06:41:45.019Z,17.5
2019-03-28T06:42:47.483Z,17.5
2019-03-28T06:43:49.687Z,17.5
2019-03-28T06:44:52.162Z,17.5
2019-03-28T06:45:54.364Z,17.5
2019-03-28T06:46:56.836Z,17.5
2019-03-28T06:47:59.314Z,17.5
2019-03-28T06:49:01.786Z,17.5
2019-03-28T06:50:03.960Z,17.5
2019-03-28T06:51:06.431Z,17.4
2019-03-28T06:52:08.899Z,17.5
2019-03-28T06:53:11.115Z,17.5
2019-03-28T06:54:14.607Z,17.5
2019-03-28T06:55:17.080Z,17.4
2019-03-28T06:56:19.580Z,17.4
2019-03-28T06:57:21.775Z,17.5
2019-03-28T06:58:24.027Z,17.4
2019-03-28T07:00:31.517Z,17.5
2019-03-28T07:01:34.005Z,17.6
2019-03-28T07:02:36.497Z,17.5
2019-03-28T07:03:38.997Z,17.5
2019-03-28T07:04:41.212Z,17.5
2019-03-28T07:05:43.391Z,17.5
2019-03-28T07:06:45.873Z,17.5
2019-03-28T07:07:48.355Z,17.4
2019-03-28T07:08:51.787Z,17.4
2019-03-28T07:09:54.244Z,17.5
2019-03-28T07:10:58.599Z,17.4
2019-03-28T07:12:00.809Z,17.4
2019-03-28T07:13:03.289Z,17.5
2019-03-28T07:14:05.762Z,17.5
2019-03-28T07:15:08.233Z,17.4
2019-03-28T07:16:10.477Z,17.4
2019-03-28T07:17:12.964Z,17.5
2019-03-28T07:18:15.435Z,17.5
2019-03-28T07:19:17.690Z,17.5
2019-03-28T07:20:19.322Z,17.5
2019-03-28T07:21:21.528Z,17.5
2019-03-28T07:22:23.997Z,17.5
2019-03-28T07:23:26.464Z,17.5
2019-03-28T07:24:28.927Z,17.5
2019-03-28T07:25:31.133Z,17.5
2019-03-28T07:26:33.603Z,17.4
2019-03-28T07:27:36.083Z,17.3
2019-03-28T07:28:38.296Z,17.5
2019-03-28T07:30:46.046Z,17.5
2019-03-28T07:31:48.528Z,17.5
2019-03-28T07:32:51.023Z,17.4
2019-03-28T07:33:53.231Z,17.5
2019-03-28T07:34:55.441Z,17.5
2019-03-28T07:35:57.965Z,17.5
2019-03-28T07:37:00.181Z,17.4
2019-03-28T07:38:02.673Z,17.4
2019-03-28T07:39:04.575Z,17.5
2019-03-28T07:40:06.801Z,17.4
2019-03-28T07:41:09.010Z,17.4
2019-03-28T07:42:10.940Z,17.5
2019-03-28T07:43:13.487Z,17.4
2019-03-28T07:44:15.683Z,17.5
2019-03-28T07:45:17.866Z,17.5
2019-03-28T07:46:19.771Z,17.4
2019-03-28T07:47:21.991Z,17.4
2019-03-28T07:48:24.349Z,17.4
2019-03-28T07:49:26.825Z,17.5
2019-03-28T07:50:29.295Z,17.4
2019-03-28T07:51:35.758Z,17.5
2019-03-28T07:52:37.966Z,17.5
2019-03-28T07:53:40.159Z,17.5
2019-03-28T07:54:42.701Z,17.4
2019-03-28T07:55:44.872Z,17.5
2019-03-28T07:56:47.354Z,17.5
2019-03-28T07:57:50.344Z,17.4
2019-03-28T07:58:52.535Z,17.4
2019-03-28T08:00:59.994Z,17.5
2019-03-28T08:02:02.530Z,17.5
2019-03-28T08:03:04.422Z,17.5
2019-03-28T08:04:06.889Z,17.4
2019-03-28T08:05:09.543Z,17.4
2019-03-28T08:06:13.477Z,17.3
2019-03-28T08:07:15.675Z,17.6
2019-03-28T08:08:18.292Z,17.4
2019-03-28T08:09:20.752Z,17.5
2019-03-28T08:10:22.683Z,17.5
2019-03-28T08:11:25.323Z,17.5
2019-03-28T08:12:28.233Z,17.5
2019-03-28T08:13:31.446Z,17.4
2019-03-28T08:14:33.925Z,17.5
2019-03-28T08:15:36.100Z,17.4
2019-03-28T08:16:38.590Z,17.4
2019-03-28T08:17:41.068Z,17.4
2019-03-28T08:18:43.560Z,17.5
2019-03-28T08:19:46.943Z,17.4
2019-03-28T08:20:49.418Z,17.5
2019-03-28T08:21:51.895Z,17.4
2019-03-28T08:22:53.861Z,17.5
2019-03-28T08:23:56.048Z,17.4
2019-03-28T08:24:58.241Z,17.5
2019-03-28T08:26:00.732Z,17.5
2019-03-28T08:27:03.200Z,17.4
2019-03-28T08:28:05.664Z,17.5
2019-03-28T08:29:07.882Z,17.4
2019-03-28T08:31:15.683Z,17.4
2019-03-28T08:32:18.291Z,17.5
2019-03-28T08:33:20.851Z,17.5
2019-03-28T08:34:23.091Z,17.5
2019-03-28T08:35:25.572Z,17.5
2019-03-28T08:36:28.060Z,17.4
2019-03-28T08:37:30.532Z,17.5
2019-03-28T08:38:33.226Z,17.4
2019-03-28T08:39:35.709Z,17.4
2019-03-28T08:41:42.871Z,17.5
2019-03-28T08:42:45.415Z,17.4
2019-03-28T08:43:48.534Z,17.4
2019-03-28T08:44:50.738Z,17.4
2019-03-28T08:45:53.229Z,17.4
2019-03-28T08:46:55.718Z,17.4
2019-03-28T08:47:58.193Z,17.4
2019-03-28T08:49:00.680Z,17.4
2019-03-28T08:50:02.887Z,17.5
2019-03-28T08:51:05.383Z,17.4
2019-03-28T08:52:07.325Z,17.5
2019-03-28T08:53:13.789Z,17.5
2019-03-28T08:54:16.057Z,17.4
2019-03-28T08:55:18.315Z,17.5
2019-03-28T08:56:20.596Z,17.4
2019-03-28T08:57:23.109Z,17.5
2019-03-28T08:58:25.579Z,17.4
2019-03-28T08:59:28.083Z,17.4
2019-03-28T09:01:37.142Z,17.4
2019-03-28T09:02:39.620Z,17.5
2019-03-28T09:03:42.105Z,17.4
2019-03-28T09:04:44.630Z,17.5
2019-03-28T09:05:47.099Z,17.4
2019-03-28T09:06:49.679Z,17.5
2019-03-28T09:07:51.888Z,17.5
2019-03-28T09:08:54.362Z,17.4
2019-03-28T09:09:56.855Z,17.4
2019-03-28T09:10:59.340Z,17.5
2019-03-28T09:12:01.560Z,17.4
2019-03-28T09:13:03.794Z,17.3
2019-03-28T09:14:06.002Z,17.5
2019-03-28T09:15:08.476Z,17.5
2019-03-28T09:16:10.697Z,17.4
2019-03-28T09:17:13.185Z,17.5
2019-03-28T09:18:15.674Z,17.4
2019-03-28T09:19:17.891Z,17.5
2019-03-28T09:20:20.357Z,17.4
2019-03-28T09:21:22.558Z,17.4
2019-03-28T09:22:25.028Z,17.4
2019-03-28T09:23:27.526Z,17.4
2019-03-28T09:24:30.014Z,17.5
2019-03-28T09:25:32.474Z,17.5
2019-03-28T09:26:34.955Z,17.4
2019-03-28T09:27:37.172Z,17.4
2019-03-28T09:28:39.383Z,17.4
2019-03-28T09:29:41.332Z,17.5
2019-03-28T09:31:48.790Z,17.5
2019-03-28T09:32:50.999Z,17.4
2019-03-28T09:33:53.220Z,17.5
2019-03-28T09:34:55.695Z,17.4
2019-03-28T09:35:58.195Z,17.4
2019-03-28T09:37:00.392Z,17.5
2019-03-28T09:38:02.601Z,17.4
2019-03-28T09:39:05.081Z,17.4
2019-03-28T09:40:06.974Z,17.4
2019-03-28T09:41:09.447Z,17.5
2019-03-28T09:42:11.923Z,17.5
2019-03-28T09:43:14.406Z,17.3
2019-03-28T09:44:16.611Z,17.4
2019-03-28T09:45:19.100Z,17.4
2019-03-28T09:46:21.051Z,17.5
2019-03-28T09:47:23.260Z,17.5
2019-03-28T09:48:25.461Z,17.4
2019-03-28T09:49:27.398Z,17.4
2019-03-28T09:50:29.610Z,17.5
2019-03-28T09:51:32.105Z,17.4
2019-03-28T09:52:38.075Z,17.4
2019-03-28T09:53:40.563Z,17.5
2019-03-28T09:54:42.777Z,17.4
2019-03-28T09:55:44.944Z,17.5
2019-03-28T09:56:47.447Z,17.4
2019-03-28T09:57:49.927Z,17.5
2019-03-28T09:58:52.103Z,17.4
2019-03-28T09:59:54.578Z,17.5
2019-03-28T10:02:02.758Z,17.4
2019-03-28T10:03:05.647Z,17.3
2019-03-28T10:04:07.851Z,17.5
2019-03-28T10:05:10.051Z,17.4
2019-03-28T10:06:12.523Z,17.5
2019-03-28T10:07:14.462Z,17.5
2019-03-28T10:08:16.930Z,17.5
2019-03-28T10:09:18.923Z,17.6
2019-03-28T10:10:21.387Z,17.5
2019-03-28T10:11:23.868Z,17.4
2019-03-28T10:12:26.345Z,17.4
2019-03-28T10:13:28.828Z,17.5
2019-03-28T10:14:31.302Z,17.5
2019-03-28T10:16:40.586Z,17.4
2019-03-28T10:17:43.128Z,17.5
2019-03-28T10:18:45.612Z,17.4
2019-03-28T10:19:49.015Z,17.5
2019-03-28T10:20:51.485Z,17.5
2019-03-28T10:21:53.989Z,17.4
2019-03-28T10:22:55.944Z,17.5
2019-03-28T10:23:58.443Z,17.5
2019-03-28T10:25:00.769Z,17.4
2019-03-28T10:26:03.237Z,17.5
2019-03-28T10:27:05.705Z,17.5
2019-03-28T10:28:08.182Z,17.4
2019-03-28T10:29:10.657Z,17.5
2019-03-28T10:30:12.937Z,17.4
2019-03-28T10:31:17.339Z,17.4
2019-03-28T10:32:19.814Z,17.5
2019-03-28T10:33:22.011Z,17.5
2019-03-28T10:34:25.642Z,17.5
2019-03-28T10:35:28.119Z,17.5
2019-03-28T10:36:30.289Z,17.4
2019-03-28T10:37:32.771Z,17.4
2019-03-28T10:38:35.233Z,17.5
2019-03-28T10:39:37.455Z,17.4
2019-03-28T10:40:39.930Z,17.5
2019-03-28T10:41:42.388Z,17.5
2019-03-28T10:42:44.604Z,17.5
2019-03-28T10:43:46.777Z,17.4
2019-03-28T10:44:48.692Z,17.5
2019-03-28T10:45:51.184Z,17.5
2019-03-28T10:46:53.392Z,17.5
2019-03-28T10:47:55.891Z,17.4
2019-03-28T10:48:58.365Z,17.4
2019-03-28T10:51:05.825Z,17.4
2019-03-28T10:52:08.002Z,17.4
2019-03-28T10:53:13.956Z,17.5
2019-03-28T10:55:21.447Z,17.4
2019-03-28T10:56:24.914Z,17.4
2019-03-28T10:59:37.452Z,17.5
2019-03-28T11:00:39.924Z,17.5
2019-03-28T11:02:47.451Z,17.5
2019-03-28T11:03:50.017Z,17.5
2019-03-28T11:04:52.475Z,17.4
2019-03-28T11:05:54.957Z,17.5
2019-03-28T11:06:58.482Z,17.4
2019-03-28T11:08:01.005Z,17.5
2019-03-28T11:09:03.473Z,17.5
2019-03-28T11:10:06.039Z,17.5
2019-03-28T11:11:08.537Z,17.5
2019-03-28T11:12:11.016Z,17.5
2019-03-28T11:13:13.495Z,17.5
2019-03-28T11:14:15.965Z,17.5
2019-03-28T11:15:18.431Z,17.5
2019-03-28T11:16:20.898Z,17.5
2019-03-28T11:17:23.370Z,17.4
2019-03-28T11:18:25.854Z,17.5
2019-03-28T11:19:28.324Z,17.5
2019-03-28T11:20:30.503Z,17.4
2019-03-28T11:21:34.854Z,17.5
2019-03-28T11:22:36.762Z,17.4
2019-03-28T11:23:39.249Z,17.5
2019-03-28T11:24:41.730Z,17.5
2019-03-28T11:25:48.178Z,17.5
2019-03-28T11:26:50.635Z,17.4
2019-03-28T11:27:53.249Z,17.4
2019-03-28T11:28:55.776Z,17.5
2019-03-28T11:29:57.662Z,17.4
2019-03-28T11:31:01.027Z,17.5
2019-03-28T11:32:03.265Z,17.6
2019-03-28T11:33:07.134Z,17.4
2019-03-28T11:34:09.325Z,17.5
2019-03-28T11:35:11.824Z,17.5
2019-03-28T11:36:14.198Z,17.5
2019-03-28T11:38:21.709Z,17.5
2019-03-28T11:39:24.085Z,17.4
2019-03-28T11:40:26.559Z,17.4
2019-03-28T11:41:29.024Z,17.5
2019-03-28T11:42:31.535Z,17.5
2019-03-28T11:43:34.120Z,17.4
2019-03-28T11:44:36.329Z,17.4
2019-03-28T11:45:38.811Z,17.4
2019-03-28T11:46:41.325Z,17.5
2019-03-28T11:47:43.524Z,17.5
2019-03-28T11:48:46.000Z,17.5
2019-03-28T11:49:48.468Z,17.5
2019-03-28T11:50:50.946Z,17.4
2019-03-28T11:51:53.420Z,17.5
2019-03-28T11:52:55.969Z,17.5
2019-03-28T11:53:58.441Z,17.4
2019-03-28T11:55:00.976Z,17.5
2019-03-28T11:56:03.191Z,17.5
2019-03-28T11:57:05.675Z,17.5
2019-03-28T11:58:08.167Z,17.6
2019-03-28T11:59:10.659Z,17.4
2019-03-28T12:00:12.860Z,17.5
2019-03-28T12:01:15.420Z,17.5
2019-03-28T12:03:22.618Z,17.5
2019-03-28T12:04:25.101Z,17.5
2019-03-28T12:05:27.329Z,17.5
2019-03-28T12:06:29.541Z,17.5
2019-03-28T12:07:31.475Z,17.5
2019-03-28T12:08:33.941Z,17.5
2019-03-28T12:09:36.148Z,17.4
2019-03-28T12:10:39.288Z,17.4
2019-03-28T12:11:41.463Z,17.5
2019-03-28T12:12:43.663Z,17.5
2019-03-28T12:13:45.932Z,17.5
2019-03-28T12:14:48.160Z,17.4
2019-03-28T12:15:51.406Z,17.6
2019-03-28T12:16:53.881Z,17.5
2019-03-28T12:17:56.352Z,17.5
2019-03-28T12:18:58.579Z,17.5
2019-03-28T12:20:00.908Z,17.5
2019-03-28T12:21:03.394Z,17.5
2019-03-28T12:22:05.594Z,17.5
2019-03-28T12:23:08.109Z,17.4
2019-03-28T12:24:10.615Z,17.4
2019-03-28T12:25:12.783Z,17.5
2019-03-28T12:26:14.737Z,17.5
2019-03-28T12:27:16.934Z,17.4
2019-03-28T12:28:18.864Z,17.4
2019-03-28T12:29:21.333Z,17.4
2019-03-28T12:30:24.910Z,17.4
2019-03-28T12:31:27.398Z,17.5
2019-03-28T12:32:29.886Z,17.5
2019-03-28T12:33:32.385Z,17.5
2019-03-28T12:34:34.594Z,17.5
2019-03-28T12:35:37.092Z,17.5
2019-03-28T12:36:39.595Z,17.5
2019-03-28T12:37:42.083Z,17.5
2019-03-28T12:38:44.558Z,17.4
2019-03-28T12:39:47.306Z,17.4
2019-03-28T12:40:49.525Z,17.5
2019-03-28T12:41:52.024Z,17.5
2019-03-28T12:42:54.236Z,17.5
2019-03-28T12:43:56.563Z,17.5
2019-03-28T12:44:59.542Z,17.5
2019-03-28T12:46:02.068Z,17.5
2019-03-28T12:47:04.626Z,17.4
2019-03-28T12:48:07.145Z,17.5
2019-03-28T12:49:09.636Z,17.4
2019-03-28T12:50:12.127Z,17.4
2019-03-28T12:51:14.624Z,17.4
2019-03-28T12:52:16.829Z,17.5
2019-03-28T12:53:20.106Z,17.4
2019-03-28T12:54:22.585Z,17.4
2019-03-28T12:55:24.539Z,17.4
2019-03-28T12:56:27.130Z,17.4
2019-03-28T12:57:30.562Z,17.4
2019-03-28T12:58:33.156Z,17.5
2019-03-28T12:59:35.356Z,17.5
2019-03-28T13:00:37.582Z,17.5
2019-03-28T13:01:40.044Z,17.4
2019-03-28T13:02:42.264Z,17.4
2019-03-28T13:03:46.705Z,17.5
2019-03-28T13:04:48.916Z,17.5
2019-03-28T13:05:51.115Z,17.4
2019-03-28T13:06:53.345Z,17.5
2019-03-28T13:07:55.837Z,17.5
2019-03-28T13:08:58.333Z,17.5
2019-03-28T13:10:00.510Z,17.5
2019-03-28T13:11:04.075Z,17.5
2019-03-28T13:12:06.583Z,17.5
2019-03-28T13:13:08.845Z,17.5
2019-03-28T13:14:11.055Z,17.4
2019-03-28T13:15:14.134Z,17.5
2019-03-28T13:16:16.322Z,17.5
2019-03-28T13:17:18.800Z,17.4
2019-03-28T13:18:21.113Z,17.4
2019-03-28T13:19:23.681Z,17.4
2019-03-28T13:20:25.630Z,17.4
2019-03-28T13:21:27.813Z,17.5
2019-03-28T13:22:29.998Z,17.4
2019-03-28T13:23:32.471Z,17.4
2019-03-28T13:24:34.947Z,17.5
2019-03-28T13:25:37.426Z,17.5
2019-03-28T13:26:39.914Z,17.4
2019-03-28T13:27:41.834Z,17.5
2019-03-28T13:28:44.318Z,17.6
2019-03-28T13:29:46.244Z,17.5
2019-03-28T13:30:48.462Z,17.4
2019-03-28T13:31:50.945Z,17.5
2019-03-28T13:32:53.142Z,17.5
2019-03-28T13:33:55.624Z,17.5
2019-03-28T13:34:58.095Z,17.4
2019-03-28T13:36:00.310Z,17.4
2019-03-28T13:37:02.787Z,17.5
2019-03-28T13:38:04.981Z,17.4
2019-03-28T13:39:07.181Z,17.4
2019-03-28T13:40:09.657Z,17.5
2019-03-28T13:41:12.134Z,17.4
2019-03-28T13:42:14.625Z,17.4
2019-03-28T13:43:16.837Z,17.4
2019-03-28T13:44:19.313Z,17.5
2019-03-28T13:45:21.794Z,17.4
2019-03-28T13:46:24.269Z,17.5
2019-03-28T13:47:26.747Z,17.5
2019-03-28T13:48:29.219Z,17.5
2019-03-28T13:49:31.699Z,17.4
2019-03-28T13:50:34.199Z,17.5
2019-03-28T13:51:36.691Z,17.5
2019-03-28T13:52:39.163Z,17.5
2019-03-28T13:53:41.108Z,17.5
2019-03-28T13:54:43.572Z,17.5
2019-03-28T13:55:45.768Z,17.4
2019-03-28T13:56:47.964Z,17.5
2019-03-28T13:58:55.127Z,17.4
2019-03-28T13:59:57.598Z,17.5
2019-03-28T14:01:00.084Z,17.5
2019-03-28T14:02:02.598Z,17.5
2019-03-28T14:03:09.297Z,17.5
2019-03-28T14:04:11.810Z,17.4
2019-03-28T14:05:14.411Z,17.4
2019-03-28T14:06:16.922Z,17.5
2019-03-28T14:07:19.173Z,17.4
2019-03-28T14:08:21.354Z,17.5
2019-03-28T14:09:24.113Z,17.4
2019-03-28T14:10:26.305Z,17.5
2019-03-28T14:11:28.785Z,17.5
2019-03-28T14:12:30.973Z,17.4
2019-03-28T14:13:32.869Z,17.4
2019-03-28T14:14:35.091Z,17.4
2019-03-28T14:15:42.046Z,17.5
2019-03-28T14:16:44.225Z,17.4
2019-03-28T14:17:46.403Z,17.5
2019-03-28T14:18:48.616Z,17.5
2019-03-28T14:19:51.108Z,17.4
2019-03-28T14:20:53.342Z,17.5
2019-03-28T14:21:55.553Z,17.5
2019-03-28T14:22:57.741Z,17.5
2019-03-28T14:24:00.232Z,17.5
2019-03-28T14:25:02.703Z,17.5
2019-03-28T14:26:05.190Z,17.5
2019-03-28T14:27:07.397Z,17.5
2019-03-28T14:28:09.859Z,17.4
2019-03-28T14:29:12.032Z,17.4